sensor_id;sensor_type;location;lat;lon;timestamp;P1;durP1;ratioP1;P2;durP2;ratioP2
47129;SDS011;69689;48.122;11.542;2023-05-10T05:02:00;1.63;;;0.30;;
47129;SDS011;69689;48.122;11.542;2023-05-10T05:04:25;0.45;;;0.20;;
47129;SDS011;69689;48.122;11.542;2023-05-10T05:06:51;0.97;;;0.13;;
47129;SDS011;69689;48.122;11.542;2023-05-10T05:09:16;0.17;;;0.17;;
47129;SDS011;69689;48.122;11.542;2023-05-10T05:11:41;0.68;;;0.10;;
47129;SDS011;69689;48.122;11.542;2023-05-10T05:14:07;1.80;;;0.27;;
47129;SDS011;69689;48.122;11.542;2023-05-10T05:16:32;0.10;;;0.10;;
47129;SDS011;69689;48.122;11.542;2023-05-10T05:18:57;0.27;;;0.20;;
47129;SDS011;69689;48.122;11.542;2023-05-10T05:21:23;0.10;;;0.10;;
47129;SDS011;69689;48.122;11.542;2023-05-10T05:23:48;0.30;;;0.10;;
47129;SDS011;69689;48.122;11.542;2023-05-10T05:26:14;0.30;;;0.20;;
47129;SDS011;69689;48.122;11.542;2023-05-10T05:28:40;0.40;;;0.20;;
47129;SDS011;69689;48.122;11.542;2023-05-10T05:31:06;0.20;;;0.10;;
47129;SDS011;69689;48.122;11.542;2023-05-10T05:33:32;0.10;;;0.10;;
47129;SDS011;69689;48.122;11.542;2023-05-10T05:35:59;0.10;;;0.10;;
47129;SDS011;69689;48.122;11.542;2023-05-10T05:38:26;1.05;;;0.10;;
47129;SDS011;69689;48.122;11.542;2023-05-10T05:40:51;0.23;;;0.17;;
47129;SDS011;69689;48.122;11.542;2023-05-10T05:43:16;0.47;;;0.20;;
47129;SDS011;69689;48.122;11.542;2023-05-10T05:45:42;2.23;;;0.20;;
47129;SDS011;69689;48.122;11.542;2023-05-10T05:48:07;0.10;;;0.10;;
47129;SDS011;69689;48.122;11.542;2023-05-10T05:50:32;0.20;;;0.20;;
47129;SDS011;69689;48.122;11.542;2023-05-10T05:52:57;0.00;;;0.00;;
47129;SDS011;69689;48.122;11.542;2023-05-10T05:55:23;0.40;;;0.10;;
47129;SDS011;69689;48.122;11.542;2023-05-10T06:00:14;0.87;;;0.10;;
47129;SDS011;69689;48.122;11.542;2023-05-10T06:02:41;0.95;;;0.22;;
47129;SDS011;69689;48.122;11.542;2023-05-10T06:05:06;0.20;;;0.20;;
47129;SDS011;69689;48.122;11.542;2023-05-10T06:07:32;0.20;;;0.17;;
47129;SDS011;69689;48.122;11.542;2023-05-10T06:12:23;0.43;;;0.30;;
47129;SDS011;69689;48.122;11.542;2023-05-10T06:14:48;0.32;;;0.30;;
47129;SDS011;69689;48.122;11.542;2023-05-10T06:17:13;0.50;;;0.30;;
47129;SDS011;69689;48.122;11.542;2023-05-10T06:22:04;0.70;;;0.20;;
47129;SDS011;69689;48.122;11.542;2023-05-10T06:24:30;0.80;;;0.40;;
47129;SDS011;69689;48.122;11.542;2023-05-10T06:26:55;0.20;;;0.20;;
47129;SDS011;69689;48.122;11.542;2023-05-10T06:29:20;0.10;;;0.10;;
47129;SDS011;69689;48.122;11.542;2023-05-10T06:31:46;0.75;;;0.22;;
47129;SDS011;69689;48.122;11.542;2023-05-10T06:36:37;0.40;;;0.30;;
47129;SDS011;69689;48.122;11.542;2023-05-10T06:39:02;0.40;;;0.30;;
47129;SDS011;69689;48.122;11.542;2023-05-10T06:43:53;1.03;;;0.30;;
47129;SDS011;69689;48.122;11.542;2023-05-10T06:46:18;0.30;;;0.30;;
47129;SDS011;69689;48.122;11.542;2023-05-10T06:48:44;0.30;;;0.30;;
47129;SDS011;69689;48.122;11.542;2023-05-10T06:51:09;0.52;;;0.50;;
47129;SDS011;69689;48.122;11.542;2023-05-10T06:53:35;0.38;;;0.38;;
47129;SDS011;69689;48.122;11.542;2023-05-10T06:56:00;0.97;;;0.30;;
47129;SDS011;69689;48.122;11.542;2023-05-10T06:58:28;0.63;;;0.25;;
47129;SDS011;69689;48.122;11.542;2023-05-10T07:01:12;1.15;;;0.20;;
47129;SDS011;69689;48.122;11.542;2023-05-10T07:03:37;0.60;;;0.40;;
47129;SDS011;69689;48.122;11.542;2023-05-10T07:06:04;0.63;;;0.30;;
47129;SDS011;69689;48.122;11.542;2023-05-10T07:08:31;0.20;;;0.20;;
47129;SDS011;69689;48.122;11.542;2023-05-10T07:11:01;0.80;;;0.30;;
47129;SDS011;69689;48.122;11.542;2023-05-10T07:15:56;1.10;;;0.30;;
47129;SDS011;69689;48.122;11.542;2023-05-10T07:18:21;2.00;;;0.43;;
47129;SDS011;69689;48.122;11.542;2023-05-10T07:20:46;0.50;;;0.50;;
47129;SDS011;69689;48.122;11.542;2023-05-10T07:23:12;1.13;;;0.40;;
47129;SDS011;69689;48.122;11.542;2023-05-10T07:25:37;0.38;;;0.38;;
47129;SDS011;69689;48.122;11.542;2023-05-10T07:28:03;0.40;;;0.40;;
47129;SDS011;69689;48.122;11.542;2023-05-10T07:30:28;0.22;;;0.22;;
47129;SDS011;69689;48.122;11.542;2023-05-10T07:32:53;0.75;;;0.40;;
47129;SDS011;69689;48.122;11.542;2023-05-10T07:35:19;0.60;;;0.50;;
47129;SDS011;69689;48.122;11.542;2023-05-10T07:37:44;0.23;;;0.23;;
47129;SDS011;69689;48.122;11.542;2023-05-10T07:40:10;0.50;;;0.50;;
47129;SDS011;69689;48.122;11.542;2023-05-10T07:42:35;0.77;;;0.40;;
47129;SDS011;69689;48.122;11.542;2023-05-10T07:45:03;0.80;;;0.50;;
47129;SDS011;69689;48.122;11.542;2023-05-10T07:47:28;1.02;;;0.55;;
47129;SDS011;69689;48.122;11.542;2023-05-10T07:49:54;0.45;;;0.30;;
47129;SDS011;69689;48.122;11.542;2023-05-10T07:52:19;0.82;;;0.70;;
47129;SDS011;69689;48.122;11.542;2023-05-10T07:54:44;1.50;;;0.65;;
47129;SDS011;69689;48.122;11.542;2023-05-10T07:57:10;0.60;;;0.57;;
47129;SDS011;69689;48.122;11.542;2023-05-10T07:59:36;0.77;;;0.57;;
47129;SDS011;69689;48.122;11.542;2023-05-10T08:02:02;0.60;;;0.60;;
47129;SDS011;69689;48.122;11.542;2023-05-10T08:04:27;0.55;;;0.55;;
47129;SDS011;69689;48.122;11.542;2023-05-10T08:06:52;0.32;;;0.32;;
47129;SDS011;69689;48.122;11.542;2023-05-10T08:09:18;0.50;;;0.50;;
47129;SDS011;69689;48.122;11.542;2023-05-10T08:11:48;0.65;;;0.43;;
47129;SDS011;69689;48.122;11.542;2023-05-10T08:14:13;0.57;;;0.33;;
47129;SDS011;69689;48.122;11.542;2023-05-10T08:16:39;0.40;;;0.30;;
47129;SDS011;69689;48.122;11.542;2023-05-10T08:19:04;0.63;;;0.40;;
47129;SDS011;69689;48.122;11.542;2023-05-10T08:21:29;0.30;;;0.30;;
47129;SDS011;69689;48.122;11.542;2023-05-10T08:23:56;0.40;;;0.35;;
47129;SDS011;69689;48.122;11.542;2023-05-10T08:26:21;1.58;;;0.50;;
47129;SDS011;69689;48.122;11.542;2023-05-10T08:28:47;0.85;;;0.20;;
47129;SDS011;69689;48.122;11.542;2023-05-10T08:31:12;0.30;;;0.30;;
47129;SDS011;69689;48.122;11.542;2023-05-10T08:33:37;0.75;;;0.40;;
47129;SDS011;69689;48.122;11.542;2023-05-10T08:36:03;0.40;;;0.40;;
47129;SDS011;69689;48.122;11.542;2023-05-10T08:38:28;0.30;;;0.30;;
47129;SDS011;69689;48.122;11.542;2023-05-10T08:40:54;1.25;;;0.60;;
47129;SDS011;69689;48.122;11.542;2023-05-10T08:43:23;0.30;;;0.30;;
47129;SDS011;69689;48.122;11.542;2023-05-10T08:45:53;1.33;;;0.47;;
47129;SDS011;69689;48.122;11.542;2023-05-10T08:48:20;1.25;;;0.50;;
47129;SDS011;69689;48.122;11.542;2023-05-10T08:50:48;0.32;;;0.32;;
47129;SDS011;69689;48.122;11.542;2023-05-10T08:53:13;0.65;;;0.40;;
47129;SDS011;69689;48.122;11.542;2023-05-10T08:55:40;1.05;;;0.40;;
47129;SDS011;69689;48.122;11.542;2023-05-10T08:58:10;1.48;;;0.70;;
47129;SDS011;69689;48.122;11.542;2023-05-10T09:00:36;0.45;;;0.35;;
47129;SDS011;69689;48.122;11.542;2023-05-10T09:03:03;1.00;;;0.40;;
47129;SDS011;69689;48.122;11.542;2023-05-10T09:05:29;0.45;;;0.40;;
47129;SDS011;69689;48.122;11.542;2023-05-10T09:07:55;0.57;;;0.40;;
47129;SDS011;69689;48.122;11.542;2023-05-10T09:10:20;0.93;;;0.50;;
47129;SDS011;69689;48.122;11.542;2023-05-10T09:12:46;0.52;;;0.45;;
47129;SDS011;69689;48.122;11.542;2023-05-10T09:15:14;1.52;;;0.50;;
47129;SDS011;69689;48.122;11.542;2023-05-10T09:17:40;2.42;;;0.40;;
47129;SDS011;69689;48.122;11.542;2023-05-10T09:20:06;1.58;;;0.40;;
47129;SDS011;69689;48.122;11.542;2023-05-10T09:22:32;0.57;;;0.35;;
47129;SDS011;69689;48.122;11.542;2023-05-10T09:27:34;1.08;;;0.35;;
47129;SDS011;69689;48.122;11.542;2023-05-10T09:30:00;0.63;;;0.45;;
47129;SDS011;69689;48.122;11.542;2023-05-10T09:32:41;0.38;;;0.38;;
47129;SDS011;69689;48.122;11.542;2023-05-10T09:37:34;0.82;;;0.30;;
47129;SDS011;69689;48.122;11.542;2023-05-10T09:40:00;1.13;;;0.50;;
47129;SDS011;69689;48.122;11.542;2023-05-10T09:42:29;0.68;;;0.40;;
47129;SDS011;69689;48.122;11.542;2023-05-10T09:44:57;0.82;;;0.30;;
47129;SDS011;69689;48.122;11.542;2023-05-10T09:47:25;1.42;;;0.50;;
47129;SDS011;69689;48.122;11.542;2023-05-10T09:49:52;0.30;;;0.30;;
47129;SDS011;69689;48.122;11.542;2023-05-10T09:52:18;2.67;;;0.50;;
47129;SDS011;69689;48.122;11.542;2023-05-10T09:54:53;0.43;;;0.43;;
47129;SDS011;69689;48.122;11.542;2023-05-10T09:57:22;0.77;;;0.40;;
47129;SDS011;69689;48.122;11.542;2023-05-10T09:59:48;0.30;;;0.30;;
47129;SDS011;69689;48.122;11.542;2023-05-10T10:02:14;0.30;;;0.30;;
47129;SDS011;69689;48.122;11.542;2023-05-10T10:04:40;0.95;;;0.50;;
47129;SDS011;69689;48.122;11.542;2023-05-10T10:07:05;0.93;;;0.57;;
47129;SDS011;69689;48.122;11.542;2023-05-10T10:09:31;0.52;;;0.43;;
47129;SDS011;69689;48.122;11.542;2023-05-10T10:11:57;0.50;;;0.50;;
47129;SDS011;69689;48.122;11.542;2023-05-10T10:14:23;0.60;;;0.30;;
47129;SDS011;69689;48.122;11.542;2023-05-10T10:16:49;0.50;;;0.38;;
47129;SDS011;69689;48.122;11.542;2023-05-10T10:19:15;1.20;;;0.50;;
47129;SDS011;69689;48.122;11.542;2023-05-10T10:21:45;0.50;;;0.47;;
47129;SDS011;69689;48.122;11.542;2023-05-10T10:24:11;0.80;;;0.32;;
47129;SDS011;69689;48.122;11.542;2023-05-10T10:26:40;1.10;;;0.50;;
47129;SDS011;69689;48.122;11.542;2023-05-10T10:29:20;0.90;;;0.90;;
47129;SDS011;69689;48.122;11.542;2023-05-10T10:32:03;1.52;;;1.42;;
47129;SDS011;69689;48.122;11.542;2023-05-10T10:34:47;3.28;;;3.17;;
47129;SDS011;69689;48.122;11.542;2023-05-10T10:37:12;3.58;;;3.38;;
47129;SDS011;69689;48.122;11.542;2023-05-10T10:39:38;4.88;;;4.75;;
47129;SDS011;69689;48.122;11.542;2023-05-10T10:42:04;3.13;;;3.03;;
47129;SDS011;69689;48.122;11.542;2023-05-10T10:52:32;0.80;;;0.77;;
47129;SDS011;69689;48.122;11.542;2023-05-10T10:55:02;2.08;;;0.60;;
47129;SDS011;69689;48.122;11.542;2023-05-10T11:00:31;2.45;;;0.60;;
47129;SDS011;69689;48.122;11.542;2023-05-10T11:02:59;1.67;;;0.60;;
47129;SDS011;69689;48.122;11.542;2023-05-10T11:05:46;0.70;;;0.70;;
47129;SDS011;69689;48.122;11.542;2023-05-10T11:08:13;1.20;;;0.75;;
47129;SDS011;69689;48.122;11.542;2023-05-10T11:10:48;1.23;;;0.68;;
47129;SDS011;69689;48.122;11.542;2023-05-10T11:13:26;1.17;;;0.60;;
47129;SDS011;69689;48.122;11.542;2023-05-10T11:21:26;0.30;;;0.28;;
47129;SDS011;69689;48.122;11.542;2023-05-10T11:23:53;0.82;;;0.38;;
47129;SDS011;69689;48.122;11.542;2023-05-10T11:26:21;2.00;;;0.70;;
47129;SDS011;69689;48.122;11.542;2023-05-10T11:28:51;0.98;;;0.60;;
47129;SDS011;69689;48.122;11.542;2023-05-10T11:31:19;0.70;;;0.60;;
47129;SDS011;69689;48.122;11.542;2023-05-10T11:33:49;2.65;;;0.82;;
47129;SDS011;69689;48.122;11.542;2023-05-10T11:36:29;0.80;;;0.80;;
47129;SDS011;69689;48.122;11.542;2023-05-10T11:38:58;1.90;;;1.20;;
47129;SDS011;69689;48.122;11.542;2023-05-10T11:43:50;2.58;;;1.08;;
47129;SDS011;69689;48.122;11.542;2023-05-10T11:46:18;0.90;;;0.90;;
47129;SDS011;69689;48.122;11.542;2023-05-10T11:48:45;2.00;;;0.85;;
47129;SDS011;69689;48.122;11.542;2023-05-10T11:51:19;1.80;;;1.00;;
47129;SDS011;69689;48.122;11.542;2023-05-10T11:53:45;1.27;;;0.80;;
47129;SDS011;69689;48.122;11.542;2023-05-10T11:56:10;1.43;;;1.00;;
47129;SDS011;69689;48.122;11.542;2023-05-10T11:58:36;1.45;;;0.60;;
47129;SDS011;69689;48.122;11.542;2023-05-10T12:01:03;0.85;;;0.50;;
47129;SDS011;69689;48.122;11.542;2023-05-10T12:03:30;1.10;;;0.50;;
47129;SDS011;69689;48.122;11.542;2023-05-10T12:05:56;3.05;;;0.50;;
47129;SDS011;69689;48.122;11.542;2023-05-10T12:08:24;1.52;;;0.45;;
47129;SDS011;69689;48.122;11.542;2023-05-10T12:10:51;1.05;;;0.55;;
47129;SDS011;69689;48.122;11.542;2023-05-10T12:13:16;0.93;;;0.60;;
47129;SDS011;69689;48.122;11.542;2023-05-10T12:15:42;1.25;;;0.50;;
47129;SDS011;69689;48.122;11.542;2023-05-10T12:18:08;2.47;;;0.63;;
47129;SDS011;69689;48.122;11.542;2023-05-10T12:20:38;0.90;;;0.80;;
47129;SDS011;69689;48.122;11.542;2023-05-10T12:23:09;1.63;;;0.70;;
47129;SDS011;69689;48.122;11.542;2023-05-10T12:25:36;4.05;;;0.55;;
47129;SDS011;69689;48.122;11.542;2023-05-10T12:28:08;1.27;;;0.60;;
47129;SDS011;69689;48.122;11.542;2023-05-10T12:30:35;1.70;;;0.70;;
47129;SDS011;69689;48.122;11.542;2023-05-10T12:33:10;1.25;;;0.40;;
47129;SDS011;69689;48.122;11.542;2023-05-10T12:35:43;0.80;;;0.80;;
47129;SDS011;69689;48.122;11.542;2023-05-10T12:38:31;1.42;;;0.90;;
47129;SDS011;69689;48.122;11.542;2023-05-10T12:41:00;1.73;;;0.90;;
47129;SDS011;69689;48.122;11.542;2023-05-10T12:43:27;1.20;;;0.90;;
47129;SDS011;69689;48.122;11.542;2023-05-10T12:50:44;1.17;;;0.70;;
47129;SDS011;69689;48.122;11.542;2023-05-10T12:55:34;2.90;;;0.90;;
47129;SDS011;69689;48.122;11.542;2023-05-10T13:00:25;1.40;;;0.60;;
47129;SDS011;69689;48.122;11.542;2023-05-10T13:02:51;0.88;;;0.60;;
47129;SDS011;69689;48.122;11.542;2023-05-10T13:05:16;1.50;;;0.70;;
47129;SDS011;69689;48.122;11.542;2023-05-10T13:10:08;0.88;;;0.70;;
47129;SDS011;69689;48.122;11.542;2023-05-10T13:12:34;1.90;;;0.70;;
47129;SDS011;69689;48.122;11.542;2023-05-10T13:15:00;0.80;;;0.50;;
47129;SDS011;69689;48.122;11.542;2023-05-10T13:17:25;2.97;;;0.70;;
47129;SDS011;69689;48.122;11.542;2023-05-10T13:19:51;0.50;;;0.50;;
47129;SDS011;69689;48.122;11.542;2023-05-10T13:22:16;0.93;;;0.60;;
47129;SDS011;69689;48.122;11.542;2023-05-10T13:24:41;2.55;;;0.70;;
47129;SDS011;69689;48.122;11.542;2023-05-10T13:27:07;1.27;;;0.50;;
47129;SDS011;69689;48.122;11.542;2023-05-10T13:29:32;3.00;;;0.63;;
47129;SDS011;69689;48.122;11.542;2023-05-10T13:31:58;1.10;;;0.70;;
47129;SDS011;69689;48.122;11.542;2023-05-10T13:34:23;0.40;;;0.40;;
47129;SDS011;69689;48.122;11.542;2023-05-10T13:36:49;0.65;;;0.63;;
47129;SDS011;69689;48.122;11.542;2023-05-10T13:39:14;0.80;;;0.80;;
47129;SDS011;69689;48.122;11.542;2023-05-10T13:44:05;2.20;;;0.47;;
47129;SDS011;69689;48.122;11.542;2023-05-10T13:48:57;2.20;;;0.40;;
47129;SDS011;69689;48.122;11.542;2023-05-10T13:51:22;2.08;;;0.60;;
47129;SDS011;69689;48.122;11.542;2023-05-10T13:53:50;1.33;;;0.40;;
47129;SDS011;69689;48.122;11.542;2023-05-10T13:58:42;0.97;;;0.40;;
47129;SDS011;69689;48.122;11.542;2023-05-10T14:03:32;2.87;;;0.50;;
47129;SDS011;69689;48.122;11.542;2023-05-10T14:08:23;1.13;;;0.60;;
47129;SDS011;69689;48.122;11.542;2023-05-10T14:13:14;0.47;;;0.30;;
47129;SDS011;69689;48.122;11.542;2023-05-10T14:15:40;1.10;;;0.60;;
47129;SDS011;69689;48.122;11.542;2023-05-10T14:20:31;0.50;;;0.50;;
47129;SDS011;69689;48.122;11.542;2023-05-10T14:22:58;0.70;;;0.60;;
47129;SDS011;69689;48.122;11.542;2023-05-10T14:25:24;0.90;;;0.60;;
47129;SDS011;69689;48.122;11.542;2023-05-10T14:27:49;0.70;;;0.68;;
47129;SDS011;69689;48.122;11.542;2023-05-10T14:30:15;0.63;;;0.40;;
47129;SDS011;69689;48.122;11.542;2023-05-10T14:32:40;0.95;;;0.43;;
47129;SDS011;69689;48.122;11.542;2023-05-10T14:35:05;1.00;;;0.47;;
47129;SDS011;69689;48.122;11.542;2023-05-10T14:37:31;0.85;;;0.60;;
47129;SDS011;69689;48.122;11.542;2023-05-10T14:39:57;0.40;;;0.40;;
47129;SDS011;69689;48.122;11.542;2023-05-10T14:44:48;0.20;;;0.20;;
47129;SDS011;69689;48.122;11.542;2023-05-10T14:49:39;0.60;;;0.38;;
47129;SDS011;69689;48.122;11.542;2023-05-10T14:52:05;0.50;;;0.40;;
47129;SDS011;69689;48.122;11.542;2023-05-10T14:56:58;1.85;;;0.50;;
47129;SDS011;69689;48.122;11.542;2023-05-10T15:01:48;0.33;;;0.20;;
47129;SDS011;69689;48.122;11.542;2023-05-10T15:06:41;0.32;;;0.28;;
47129;SDS011;69689;48.122;11.542;2023-05-10T15:11:33;1.67;;;0.50;;
47129;SDS011;69689;48.122;11.542;2023-05-10T15:16:24;0.43;;;0.30;;
47129;SDS011;69689;48.122;11.542;2023-05-10T15:21:14;0.83;;;0.50;;
47129;SDS011;69689;48.122;11.542;2023-05-10T15:26:05;0.80;;;0.70;;
47129;SDS011;69689;48.122;11.542;2023-05-10T15:30:56;0.80;;;0.60;;
47129;SDS011;69689;48.122;11.542;2023-05-10T15:35:46;0.50;;;0.50;;
47129;SDS011;69689;48.122;11.542;2023-05-10T15:40:37;0.60;;;0.50;;
47129;SDS011;69689;48.122;11.542;2023-05-10T15:43:02;0.52;;;0.40;;
47129;SDS011;69689;48.122;11.542;2023-05-10T15:47:53;1.17;;;0.83;;
47129;SDS011;69689;48.122;11.542;2023-05-10T15:50:18;1.13;;;0.50;;
47129;SDS011;69689;48.122;11.542;2023-05-10T15:55:09;1.33;;;0.60;;
47129;SDS011;69689;48.122;11.542;2023-05-10T15:57:38;0.70;;;0.60;;
47129;SDS011;69689;48.122;11.542;2023-05-10T16:00:04;0.47;;;0.30;;
47129;SDS011;69689;48.122;11.542;2023-05-10T16:02:31;1.23;;;0.60;;
47129;SDS011;69689;48.122;11.542;2023-05-10T16:04:56;1.48;;;0.70;;
47129;SDS011;69689;48.122;11.542;2023-05-10T16:07:22;0.57;;;0.57;;
47129;SDS011;69689;48.122;11.542;2023-05-10T16:09:47;0.60;;;0.50;;
47129;SDS011;69689;48.122;11.542;2023-05-10T16:12:13;1.00;;;0.90;;
47129;SDS011;69689;48.122;11.542;2023-05-10T16:14:39;0.40;;;0.40;;
47129;SDS011;69689;48.122;11.542;2023-05-10T16:17:04;0.70;;;0.40;;
47129;SDS011;69689;48.122;11.542;2023-05-10T16:19:29;0.90;;;0.60;;
47129;SDS011;69689;48.122;11.542;2023-05-10T16:21:55;2.53;;;0.80;;
47129;SDS011;69689;48.122;11.542;2023-05-10T16:24:20;0.52;;;0.52;;
47129;SDS011;69689;48.122;11.542;2023-05-10T16:26:45;0.87;;;0.70;;
47129;SDS011;69689;48.122;11.542;2023-05-10T16:29:11;0.75;;;0.63;;
47129;SDS011;69689;48.122;11.542;2023-05-10T16:31:36;1.05;;;0.80;;
47129;SDS011;69689;48.122;11.542;2023-05-10T16:34:02;3.63;;;1.10;;
47129;SDS011;69689;48.122;11.542;2023-05-10T16:36:27;2.88;;;1.15;;
47129;SDS011;69689;48.122;11.542;2023-05-10T16:38:55;1.17;;;0.77;;
47129;SDS011;69689;48.122;11.542;2023-05-10T16:41:20;2.10;;;0.80;;
47129;SDS011;69689;48.122;11.542;2023-05-10T16:43:46;0.50;;;0.50;;
47129;SDS011;69689;48.122;11.542;2023-05-10T16:46:11;0.77;;;0.77;;
47129;SDS011;69689;48.122;11.542;2023-05-10T16:48:37;1.70;;;0.70;;
47129;SDS011;69689;48.122;11.542;2023-05-10T16:51:02;1.73;;;0.90;;
47129;SDS011;69689;48.122;11.542;2023-05-10T16:53:28;2.33;;;1.00;;
47129;SDS011;69689;48.122;11.542;2023-05-10T16:55:55;1.30;;;0.80;;
47129;SDS011;69689;48.122;11.542;2023-05-10T16:58:20;1.10;;;0.77;;
47129;SDS011;69689;48.122;11.542;2023-05-10T17:00:45;1.80;;;0.60;;
47129;SDS011;69689;48.122;11.542;2023-05-10T17:03:11;0.43;;;0.40;;
47129;SDS011;69689;48.122;11.542;2023-05-10T17:05:36;0.30;;;0.30;;
47129;SDS011;69689;48.122;11.542;2023-05-10T17:08:01;1.27;;;0.40;;
47129;SDS011;69689;48.122;11.542;2023-05-10T17:10:27;1.70;;;0.57;;
47129;SDS011;69689;48.122;11.542;2023-05-10T17:12:52;0.20;;;0.20;;
47129;SDS011;69689;48.122;11.542;2023-05-10T17:15:17;1.65;;;0.50;;
47129;SDS011;69689;48.122;11.542;2023-05-10T17:17:44;1.63;;;0.50;;
47129;SDS011;69689;48.122;11.542;2023-05-10T17:20:11;0.57;;;0.50;;
47129;SDS011;69689;48.122;11.542;2023-05-10T17:22:36;1.33;;;0.40;;
47129;SDS011;69689;48.122;11.542;2023-05-10T17:25:01;1.40;;;0.40;;
47129;SDS011;69689;48.122;11.542;2023-05-10T17:27:27;1.95;;;0.57;;
47129;SDS011;69689;48.122;11.542;2023-05-10T17:32:19;1.45;;;0.90;;
47129;SDS011;69689;48.122;11.542;2023-05-10T17:34:45;2.37;;;0.70;;
47129;SDS011;69689;48.122;11.542;2023-05-10T17:37:10;0.60;;;0.55;;
47129;SDS011;69689;48.122;11.542;2023-05-10T17:39:36;0.75;;;0.60;;
47129;SDS011;69689;48.122;11.542;2023-05-10T17:42:01;1.07;;;0.70;;
47129;SDS011;69689;48.122;11.542;2023-05-10T17:44:26;1.47;;;0.60;;
47129;SDS011;69689;48.122;11.542;2023-05-10T17:46:51;0.50;;;0.50;;
47129;SDS011;69689;48.122;11.542;2023-05-10T17:49:17;1.77;;;0.57;;
47129;SDS011;69689;48.122;11.542;2023-05-10T17:51:42;0.93;;;0.50;;
47129;SDS011;69689;48.122;11.542;2023-05-10T17:54:08;0.90;;;0.60;;
47129;SDS011;69689;48.122;11.542;2023-05-10T17:56:33;1.40;;;0.93;;
47129;SDS011;69689;48.122;11.542;2023-05-10T17:58:58;1.33;;;0.77;;
47129;SDS011;69689;48.122;11.542;2023-05-10T18:01:24;0.98;;;0.82;;
47129;SDS011;69689;48.122;11.542;2023-05-10T18:03:49;3.53;;;0.73;;
47129;SDS011;69689;48.122;11.542;2023-05-10T18:06:15;0.80;;;0.75;;
47129;SDS011;69689;48.122;11.542;2023-05-10T18:08:41;1.60;;;0.67;;
47129;SDS011;69689;48.122;11.542;2023-05-10T18:11:06;1.40;;;0.53;;
47129;SDS011;69689;48.122;11.542;2023-05-10T18:13:31;1.02;;;0.80;;
47129;SDS011;69689;48.122;11.542;2023-05-10T18:15:57;1.00;;;0.60;;
47129;SDS011;69689;48.122;11.542;2023-05-10T18:18:22;0.75;;;0.60;;
47129;SDS011;69689;48.122;11.542;2023-05-10T18:20:48;1.65;;;0.93;;
47129;SDS011;69689;48.122;11.542;2023-05-10T18:23:20;1.48;;;0.70;;
47129;SDS011;69689;48.122;11.542;2023-05-10T18:25:45;1.47;;;0.50;;
47129;SDS011;69689;48.122;11.542;2023-05-10T18:28:11;0.98;;;0.80;;
47129;SDS011;69689;48.122;11.542;2023-05-10T18:30:36;0.90;;;0.80;;
47129;SDS011;69689;48.122;11.542;2023-05-10T18:33:02;0.77;;;0.60;;
47129;SDS011;69689;48.122;11.542;2023-05-10T18:35:27;0.90;;;0.70;;
47129;SDS011;69689;48.122;11.542;2023-05-10T18:37:53;1.65;;;0.60;;
47129;SDS011;69689;48.122;11.542;2023-05-10T18:40:18;1.23;;;0.80;;
47129;SDS011;69689;48.122;11.542;2023-05-10T18:42:43;1.92;;;0.80;;
47129;SDS011;69689;48.122;11.542;2023-05-10T18:45:10;1.27;;;0.85;;
47129;SDS011;69689;48.122;11.542;2023-05-10T18:47:36;0.98;;;0.73;;
47129;SDS011;69689;48.122;11.542;2023-05-10T18:50:02;1.10;;;0.80;;
47129;SDS011;69689;48.122;11.542;2023-05-10T18:52:29;1.45;;;0.80;;
47129;SDS011;69689;48.122;11.542;2023-05-10T18:54:54;0.90;;;0.73;;
47129;SDS011;69689;48.122;11.542;2023-05-10T18:57:19;0.80;;;0.63;;
47129;SDS011;69689;48.122;11.542;2023-05-10T18:59:46;0.82;;;0.80;;
